sensor_id;sensor_type;location;lat;lon;timestamp;pressure;altitude;pressure_sealevel;temperature;humidity
25080;BME280;13071;48.868;9.996;2023-05-08T00:00:09;96782.38;;;14.16;100.00
25080;BME280;13071;48.868;9.996;2023-05-08T00:02:36;96783.53;;;14.15;100.00
25080;BME280;13071;48.868;9.996;2023-05-08T00:05:02;96781.06;;;14.10;100.00
25080;BME280;13071;48.868;9.996;2023-05-08T00:07:29;96781.06;;;14.10;100.00
25080;BME280;13071;48.868;9.996;2023-05-08T00:09:57;96779.81;;;14.08;100.00
25080;BME280;13071;48.868;9.996;2023-05-08T00:12:23;96774.28;;;14.04;100.00
25080;BME280;13071;48.868;9.996;2023-05-08T00:14:50;96777.81;;;14.05;100.00
25080;BME280;13071;48.868;9.996;2023-05-08T00:17:17;96776.22;;;14.04;100.00
25080;BME280;13071;48.868;9.996;2023-05-08T00:19:43;96774.28;;;14.04;100.00
25080;BME280;13071;48.868;9.996;2023-05-08T00:22:10;96771.91;;;14.03;100.00
25080;BME280;13071;48.868;9.996;2023-05-08T00:24:36;96777.81;;;14.05;100.00
25080;BME280;13071;48.868;9.996;2023-05-08T00:27:04;96773.56;;;14.07;100.00
25080;BME280;13071;48.868;9.996;2023-05-08T00:29:32;96773.69;;;14.11;100.00
25080;BME280;13071;48.868;9.996;2023-05-08T00:31:59;96779.56;;;14.13;100.00
25080;BME280;13071;48.868;9.996;2023-05-08T00:34:25;96772.91;;;14.10;100.00
25080;BME280;13071;48.868;9.996;2023-05-08T00:36:52;96786.13;;;14.12;100.00
25080;BME280;13071;48.868;9.996;2023-05-08T00:39:18;96779.31;;;14.18;100.00
25080;BME280;13071;48.868;9.996;2023-05-08T00:41:45;96775.44;;;14.19;100.00
25080;BME280;13071;48.868;9.996;2023-05-08T00:44:13;96785.63;;;14.22;100.00
25080;BME280;13071;48.868;9.996;2023-05-08T00:46:40;96783.16;;;14.17;100.00
25080;BME280;13071;48.868;9.996;2023-05-08T00:49:07;96780.44;;;14.17;100.00
25080;BME280;13071;48.868;9.996;2023-05-08T00:51:35;96781.84;;;14.11;100.00
25080;BME280;13071;48.868;9.996;2023-05-08T00:54:03;96780.16;;;14.06;100.00
25080;BME280;13071;48.868;9.996;2023-05-08T00:56:31;96780.94;;;14.07;100.00
25080;BME280;13071;48.868;9.996;2023-05-08T00:58:58;96783.00;;;14.10;100.00
25080;BME280;13071;48.868;9.996;2023-05-08T01:01:26;96779.47;;;14.09;100.00
25080;BME280;13071;48.868;9.996;2023-05-08T01:03:53;96776.00;;;13.97;100.00
25080;BME280;13071;48.868;9.996;2023-05-08T01:06:20;96778.72;;;13.97;100.00
25080;BME280;13071;48.868;9.996;2023-05-08T01:08:46;96780.78;;;14.00;100.00
25080;BME280;13071;48.868;9.996;2023-05-08T01:11:20;96779.53;;;13.97;100.00
25080;BME280;13071;48.868;9.996;2023-05-08T01:13:58;96774.19;;;14.01;100.00
25080;BME280;13071;48.868;9.996;2023-05-08T01:16:38;96777.34;;;14.03;100.00
25080;BME280;13071;48.868;9.996;2023-05-08T01:19:26;96781.41;;;14.09;100.00
25080;BME280;13071;48.868;9.996;2023-05-08T01:22:01;96779.38;;;14.06;100.00
25080;BME280;13071;48.868;9.996;2023-05-08T01:25:01;96786.38;;;14.07;100.00
25080;BME280;13071;48.868;9.996;2023-05-08T01:27:45;96785.16;;;14.04;100.00
25080;BME280;13071;48.868;9.996;2023-05-08T01:30:43;96785.50;;;14.03;100.00
25080;BME280;13071;48.868;9.996;2023-05-08T01:33:20;96781.56;;;14.00;100.00
25080;BME280;13071;48.868;9.996;2023-05-08T01:35:52;96787.44;;;14.02;100.00
25080;BME280;13071;48.868;9.996;2023-05-08T01:38:29;96791.03;;;13.91;100.00
25080;BME280;13071;48.868;9.996;2023-05-08T01:41:04;96793.75;;;13.91;100.00
25080;BME280;13071;48.868;9.996;2023-05-08T01:43:46;96790.47;;;13.85;100.00
25080;BME280;13071;48.868;9.996;2023-05-08T01:46:18;96798.97;;;13.83;100.00
25080;BME280;13071;48.868;9.996;2023-05-08T01:48:49;96800.66;;;13.88;100.00
25080;BME280;13071;48.868;9.996;2023-05-08T01:51:18;96799.53;;;13.89;100.00
25080;BME280;13071;48.868;9.996;2023-05-08T01:53:50;96797.69;;;13.93;100.00
25080;BME280;13071;48.868;9.996;2023-05-08T01:56:21;96808.81;;;13.88;100.00
25080;BME280;13071;48.868;9.996;2023-05-08T01:58:49;96802.81;;;13.82;100.00
25080;BME280;13071;48.868;9.996;2023-05-08T02:01:17;96802.81;;;13.82;100.00
25080;BME280;13071;48.868;9.996;2023-05-08T02:03:49;96797.75;;;13.81;100.00
25080;BME280;13071;48.868;9.996;2023-05-08T02:06:18;96804.66;;;13.78;100.00
25080;BME280;13071;48.868;9.996;2023-05-08T02:08:46;96802.97;;;13.74;100.00
25080;BME280;13071;48.868;9.996;2023-05-08T02:11:14;96801.38;;;13.73;100.00
25080;BME280;13071;48.868;9.996;2023-05-08T02:13:43;96800.25;;;13.74;100.00
25080;BME280;13071;48.868;9.996;2023-05-08T02:16:12;96800.72;;;13.76;100.00
25080;BME280;13071;48.868;9.996;2023-05-08T02:18:46;96802.97;;;13.74;100.00
25080;BME280;13071;48.868;9.996;2023-05-08T02:21:16;96796.66;;;13.70;100.00
25080;BME280;13071;48.868;9.996;2023-05-08T02:23:44;96804.00;;;13.69;100.00
25080;BME280;13071;48.868;9.996;2023-05-08T02:26:12;96803.94;;;13.66;100.00
25080;BME280;13071;48.868;9.996;2023-05-08T02:28:40;96807.63;;;13.73;100.00
25080;BME280;13071;48.868;9.996;2023-05-08T02:31:08;96801.94;;;13.78;100.00
25080;BME280;13071;48.868;9.996;2023-05-08T02:33:35;96805.25;;;13.72;100.00
25080;BME280;13071;48.868;9.996;2023-05-08T02:36:04;96807.53;;;13.70;100.00
25080;BME280;13071;48.868;9.996;2023-05-08T02:38:34;96804.34;;;13.68;100.00
25080;BME280;13071;48.868;9.996;2023-05-08T02:41:04;96804.47;;;13.71;100.00
25080;BME280;13071;48.868;9.996;2023-05-08T02:43:31;96806.16;;;13.76;100.00
25080;BME280;13071;48.868;9.996;2023-05-08T02:46:09;96808.41;;;13.74;100.00
25080;BME280;13071;48.868;9.996;2023-05-08T02:48:41;96809.41;;;13.81;100.00
25080;BME280;13071;48.868;9.996;2023-05-08T02:51:17;96804.66;;;13.78;100.00
25080;BME280;13071;48.868;9.996;2023-05-08T02:53:49;96805.38;;;13.75;100.00
25080;BME280;13071;48.868;9.996;2023-05-08T02:56:22;96803.88;;;13.78;100.00
25080;BME280;13071;48.868;9.996;2023-05-08T02:58:57;96808.88;;;13.76;100.00
25080;BME280;13071;48.868;9.996;2023-05-08T03:01:30;96804.19;;;13.76;100.00
25080;BME280;13071;48.868;9.996;2023-05-08T03:04:01;96811.13;;;13.74;100.00
25080;BME280;13071;48.868;9.996;2023-05-08T03:06:34;96807.53;;;13.70;100.00
25080;BME280;13071;48.868;9.996;2023-05-08T03:09:04;96801.38;;;13.73;100.00
25080;BME280;13071;48.868;9.996;2023-05-08T03:11:39;96797.88;;;13.72;100.00
25080;BME280;13071;48.868;9.996;2023-05-08T03:14:09;96803.69;;;13.71;100.00
25080;BME280;13071;48.868;9.996;2023-05-08T03:16:38;96798.66;;;13.73;100.00
25080;BME280;13071;48.868;9.996;2023-05-08T03:19:11;96795.72;;;13.78;100.00
25080;BME280;13071;48.868;9.996;2023-05-08T03:21:42;96791.22;;;13.70;100.00
25080;BME280;13071;48.868;9.996;2023-05-08T03:24:11;96792.34;;;13.69;100.00
25080;BME280;13071;48.868;9.996;2023-05-08T03:26:41;96797.00;;;13.68;100.00
25080;BME280;13071;48.868;9.996;2023-05-08T03:29:08;96799.81;;;13.72;100.00
25080;BME280;13071;48.868;9.996;2023-05-08T03:31:36;96804.34;;;13.68;100.00
25080;BME280;13071;48.868;9.996;2023-05-08T03:34:03;96807.31;;;13.63;100.00
25080;BME280;13071;48.868;9.996;2023-05-08T03:36:30;96803.38;;;13.60;100.00
25080;BME280;13071;48.868;9.996;2023-05-08T03:38:58;96807.31;;;13.63;100.00
25080;BME280;13071;48.868;9.996;2023-05-08T03:41:26;96808.91;;;13.64;100.00
25080;BME280;13071;48.868;9.996;2023-05-08T03:43:54;96801.88;;;13.63;100.00
25080;BME280;13071;48.868;9.996;2023-05-08T03:46:22;96799.28;;;13.66;100.00
25080;BME280;13071;48.868;9.996;2023-05-08T03:48:49;96804.81;;;13.70;100.00
25080;BME280;13071;48.868;9.996;2023-05-08T03:51:17;96812.63;;;13.71;100.00
25080;BME280;13071;48.868;9.996;2023-05-08T03:53:45;96812.63;;;13.71;100.00
25080;BME280;13071;48.868;9.996;2023-05-08T03:56:12;96812.28;;;13.73;100.00
25080;BME280;13071;48.868;9.996;2023-05-08T03:58:44;96819.31;;;13.74;100.00
25080;BME280;13071;48.868;9.996;2023-05-08T04:01:19;96812.28;;;13.73;100.00
25080;BME280;13071;48.868;9.996;2023-05-08T04:03:53;96817.38;;;13.74;100.00
25080;BME280;13071;48.868;9.996;2023-05-08T04:06:28;96815.44;;;13.75;100.00
25080;BME280;13071;48.868;9.996;2023-05-08T04:09:01;96824.03;;;13.77;100.00
25080;BME280;13071;48.868;9.996;2023-05-08T04:11:32;96822.13;;;13.77;100.00
25080;BME280;13071;48.868;9.996;2023-05-08T04:14:03;96823.25;;;13.76;100.00
25080;BME280;13071;48.868;9.996;2023-05-08T04:16:35;96832.91;;;13.74;100.00
25080;BME280;13071;48.868;9.996;2023-05-08T04:19:09;96833.69;;;13.74;100.00
25080;BME280;13071;48.868;9.996;2023-05-08T04:21:41;96833.78;;;13.78;100.00
25080;BME280;13071;48.868;9.996;2023-05-08T04:24:12;96829.03;;;13.75;100.00
25080;BME280;13071;48.868;9.996;2023-05-08T04:26:40;96836.50;;;13.78;100.00
25080;BME280;13071;48.868;9.996;2023-05-08T04:29:09;96835.63;;;13.74;100.00
25080;BME280;13071;48.868;9.996;2023-05-08T04:31:37;96841.53;;;13.76;100.00
25080;BME280;13071;48.868;9.996;2023-05-08T04:34:05;96841.75;;;13.71;100.00
25080;BME280;13071;48.868;9.996;2023-05-08T04:36:33;96842.66;;;13.63;100.00
25080;BME280;13071;48.868;9.996;2023-05-08T04:39:00;96843.22;;;13.68;100.00
25080;BME280;13071;48.868;9.996;2023-05-08T04:41:27;96838.81;;;13.76;100.00
25080;BME280;13071;48.868;9.996;2023-05-08T04:43:53;96848.09;;;13.75;100.00
25080;BME280;13071;48.868;9.996;2023-05-08T04:46:21;96847.47;;;13.81;100.00
25080;BME280;13071;48.868;9.996;2023-05-08T04:48:49;96854.31;;;13.75;100.00
25080;BME280;13071;48.868;9.996;2023-05-08T04:51:15;96854.19;;;13.84;100.00
25080;BME280;13071;48.868;9.996;2023-05-08T04:53:42;96854.72;;;13.90;100.00
25080;BME280;13071;48.868;9.996;2023-05-08T04:56:08;96856.31;;;13.91;100.00
25080;BME280;13071;48.868;9.996;2023-05-08T04:58:35;96855.53;;;13.90;100.00
25080;BME280;13071;48.868;9.996;2023-05-08T05:01:02;96862.56;;;13.91;100.00
25080;BME280;13071;48.868;9.996;2023-05-08T05:03:30;96858.50;;;13.85;100.00
25080;BME280;13071;48.868;9.996;2023-05-08T05:05:57;96866.28;;;13.87;100.00
25080;BME280;13071;48.868;9.996;2023-05-08T05:08:24;96858.13;;;13.87;100.00
25080;BME280;13071;48.868;9.996;2023-05-08T05:10:51;96856.66;;;13.89;100.00
25080;BME280;13071;48.868;9.996;2023-05-08T05:13:17;96861.31;;;13.89;100.00
25080;BME280;13071;48.868;9.996;2023-05-08T05:15:44;96873.06;;;13.93;100.00
25080;BME280;13071;48.868;9.996;2023-05-08T05:18:11;96874.75;;;13.97;100.00
25080;BME280;13071;48.868;9.996;2023-05-08T05:20:39;96873.84;;;14.05;100.00
25080;BME280;13071;48.868;9.996;2023-05-08T05:23:05;96875.88;;;13.96;100.00
25080;BME280;13071;48.868;9.996;2023-05-08T05:25:33;96873.84;;;14.05;100.00
25080;BME280;13071;48.868;9.996;2023-05-08T05:28:00;96873.72;;;14.02;100.00
25080;BME280;13071;48.868;9.996;2023-05-08T05:30:26;96872.53;;;13.87;100.00
25080;BME280;13071;48.868;9.996;2023-05-08T05:32:53;96876.28;;;13.82;100.00
25080;BME280;13071;48.868;9.996;2023-05-08T05:35:20;96881.72;;;13.82;100.00
25080;BME280;13071;48.868;9.996;2023-05-08T05:37:48;96880.81;;;13.91;100.00
25080;BME280;13071;48.868;9.996;2023-05-08T05:40:14;96883.97;;;13.93;100.00
25080;BME280;13071;48.868;9.996;2023-05-08T05:42:41;96886.59;;;13.89;100.00
25080;BME280;13071;48.868;9.996;2023-05-08T05:45:13;96887.47;;;13.93;100.00
25080;BME280;13071;48.868;9.996;2023-05-08T05:47:43;96886.34;;;13.94;100.00
25080;BME280;13071;48.868;9.996;2023-05-08T05:50:10;96897.72;;;13.84;100.00
25080;BME280;13071;48.868;9.996;2023-05-08T05:52:37;96892.16;;;13.80;100.00
25080;BME280;13071;48.868;9.996;2023-05-08T05:55:05;96898.28;;;13.77;100.00
25080;BME280;13071;48.868;9.996;2023-05-08T05:57:32;96887.84;;;13.79;100.00
25080;BME280;13071;48.868;9.996;2023-05-08T05:59:59;96887.28;;;13.86;100.00
25080;BME280;13071;48.868;9.996;2023-05-08T06:02:25;96889.41;;;13.93;100.00
25080;BME280;13071;48.868;9.996;2023-05-08T06:04:52;96892.69;;;13.98;100.00
25080;BME280;13071;48.868;9.996;2023-05-08T06:07:18;96891.44;;;13.96;100.00
25080;BME280;13071;48.868;9.996;2023-05-08T06:09:45;96891.88;;;13.98;100.00
25080;BME280;13071;48.868;9.996;2023-05-08T06:12:13;96892.97;;;14.09;100.00
25080;BME280;13071;48.868;9.996;2023-05-08T06:14:40;96893.88;;;14.13;100.00
25080;BME280;13071;48.868;9.996;2023-05-08T06:17:07;96898.38;;;14.21;100.00
25080;BME280;13071;48.868;9.996;2023-05-08T06:19:33;96901.78;;;14.18;100.00
25080;BME280;13071;48.868;9.996;2023-05-08T06:22:00;96894.50;;;14.22;100.00
25080;BME280;13071;48.868;9.996;2023-05-08T06:24:26;96898.00;;;14.35;100.00
25080;BME280;13071;48.868;9.996;2023-05-08T06:26:53;96896.06;;;14.35;100.00
25080;BME280;13071;48.868;9.996;2023-05-08T06:29:21;96903.94;;;14.52;100.00
25080;BME280;13071;48.868;9.996;2023-05-08T06:31:48;96904.69;;;14.65;100.00
25080;BME280;13071;48.868;9.996;2023-05-08T06:34:15;96902.22;;;14.76;99.82
25080;BME280;13071;48.868;9.996;2023-05-08T06:36:41;96894.69;;;14.85;97.59
25080;BME280;13071;48.868;9.996;2023-05-08T06:39:08;96899.16;;;14.93;97.00
25080;BME280;13071;48.868;9.996;2023-05-08T06:41:34;96898.78;;;15.10;95.23
25080;BME280;13071;48.868;9.996;2023-05-08T06:44:01;96900.38;;;15.11;95.62
25080;BME280;13071;48.868;9.996;2023-05-08T06:46:29;96900.22;;;15.04;93.59
25080;BME280;13071;48.868;9.996;2023-05-08T06:48:55;96909.09;;;15.01;93.47
25080;BME280;13071;48.868;9.996;2023-05-08T06:51:22;96904.97;;;15.07;93.46
25080;BME280;13071;48.868;9.996;2023-05-08T06:53:49;96907.88;;;15.14;93.17
25080;BME280;13071;48.868;9.996;2023-05-08T06:56:15;96902.44;;;15.14;92.77
25080;BME280;13071;48.868;9.996;2023-05-08T06:58:42;96905.03;;;15.10;93.44
25080;BME280;13071;48.868;9.996;2023-05-08T07:01:08;96905.31;;;15.21;91.89
25080;BME280;13071;48.868;9.996;2023-05-08T07:03:37;96907.44;;;15.12;93.42
25080;BME280;13071;48.868;9.996;2023-05-08T07:06:06;96909.97;;;15.21;91.76
25080;BME280;13071;48.868;9.996;2023-05-08T07:08:33;96909.81;;;15.29;92.83
25080;BME280;13071;48.868;9.996;2023-05-08T07:10:59;96906.78;;;15.34;92.58
25080;BME280;13071;48.868;9.996;2023-05-08T07:13:26;96893.94;;;15.35;92.45
25080;BME280;13071;48.868;9.996;2023-05-08T07:15:52;96905.84;;;15.27;89.78
25080;BME280;13071;48.868;9.996;2023-05-08T07:18:19;96912.44;;;15.26;91.29
25080;BME280;13071;48.868;9.996;2023-05-08T07:20:47;96910.81;;;15.40;91.59
25080;BME280;13071;48.868;9.996;2023-05-08T07:23:14;96906.91;;;15.53;91.40
25080;BME280;13071;48.868;9.996;2023-05-08T07:25:40;96912.56;;;15.64;91.52
25080;BME280;13071;48.868;9.996;2023-05-08T07:28:07;96907.63;;;15.70;90.97
25080;BME280;13071;48.868;9.996;2023-05-08T07:30:34;96905.88;;;15.77;88.43
25080;BME280;13071;48.868;9.996;2023-05-08T07:33:00;96911.38;;;15.62;91.28
25080;BME280;13071;48.868;9.996;2023-05-08T07:35:28;96903.94;;;15.78;90.12
25080;BME280;13071;48.868;9.996;2023-05-08T07:37:56;96908.94;;;15.76;89.17
25080;BME280;13071;48.868;9.996;2023-05-08T07:40:22;96914.66;;;15.86;90.07
25080;BME280;13071;48.868;9.996;2023-05-08T07:42:49;96917.81;;;15.88;86.58
25080;BME280;13071;48.868;9.996;2023-05-08T07:45:15;96917.13;;;15.76;89.01
25080;BME280;13071;48.868;9.996;2023-05-08T07:47:49;96914.03;;;15.93;88.52
25080;BME280;13071;48.868;9.996;2023-05-08T07:50:16;96922.09;;;15.89;89.60
25080;BME280;13071;48.868;9.996;2023-05-08T07:52:42;96921.94;;;15.98;86.84
25080;BME280;13071;48.868;9.996;2023-05-08T07:55:10;96920.91;;;15.87;86.81
25080;BME280;13071;48.868;9.996;2023-05-08T07:57:37;96921.41;;;15.92;88.98
25080;BME280;13071;48.868;9.996;2023-05-08T08:00:05;96918.31;;;15.94;88.74
25080;BME280;13071;48.868;9.996;2023-05-08T08:02:32;96917.88;;;15.92;87.33
25080;BME280;13071;48.868;9.996;2023-05-08T08:04:59;96917.03;;;15.88;88.13
25080;BME280;13071;48.868;9.996;2023-05-08T08:07:26;96921.00;;;15.75;89.38
25080;BME280;13071;48.868;9.996;2023-05-08T08:09:52;96921.72;;;15.72;90.41
25080;BME280;13071;48.868;9.996;2023-05-08T08:12:21;96915.56;;;15.59;90.40
25080;BME280;13071;48.868;9.996;2023-05-08T08:14:48;96920.22;;;15.74;89.65
25080;BME280;13071;48.868;9.996;2023-05-08T08:17:14;96919.66;;;15.84;89.86
25080;BME280;13071;48.868;9.996;2023-05-08T08:19:41;96926.28;;;15.83;91.31
25080;BME280;13071;48.868;9.996;2023-05-08T08:22:07;96924.19;;;15.77;90.24
25080;BME280;13071;48.868;9.996;2023-05-08T08:24:34;96924.28;;;15.65;89.83
25080;BME280;13071;48.868;9.996;2023-05-08T08:27:01;96923.72;;;15.75;88.89
25080;BME280;13071;48.868;9.996;2023-05-08T08:29:29;96924.72;;;15.67;89.28
25080;BME280;13071;48.868;9.996;2023-05-08T08:31:56;96926.31;;;15.68;89.19
25080;BME280;13071;48.868;9.996;2023-05-08T08:34:23;96935.03;;;15.58;90.23
25080;BME280;13071;48.868;9.996;2023-05-08T08:36:49;96932.75;;;15.60;90.09
25080;BME280;13071;48.868;9.996;2023-05-08T08:39:16;96929.06;;;15.52;90.79
25080;BME280;13071;48.868;9.996;2023-05-08T08:41:43;96928.53;;;15.62;91.56
25080;BME280;13071;48.868;9.996;2023-05-08T08:44:09;96930.09;;;15.47;91.35
25080;BME280;13071;48.868;9.996;2023-05-08T08:46:38;96928.94;;;15.64;89.92
25080;BME280;13071;48.868;9.996;2023-05-08T08:49:12;96924.28;;;15.65;90.58
25080;BME280;13071;48.868;9.996;2023-05-08T08:51:42;96926.22;;;15.64;92.56
25080;BME280;13071;48.868;9.996;2023-05-08T08:54:12;96927.25;;;15.75;91.11
25080;BME280;13071;48.868;9.996;2023-05-08T08:56:40;96933.84;;;15.74;90.42
25080;BME280;13071;48.868;9.996;2023-05-08T08:59:08;96936.75;;;15.81;92.08
25080;BME280;13071;48.868;9.996;2023-05-08T09:01:39;96933.56;;;15.79;93.68
25080;BME280;13071;48.868;9.996;2023-05-08T09:04:06;96924.66;;;15.98;92.42
25080;BME280;13071;48.868;9.996;2023-05-08T09:06:34;96941.63;;;16.07;91.54
25080;BME280;13071;48.868;9.996;2023-05-08T09:09:01;96936.28;;;16.14;90.26
25080;BME280;13071;48.868;9.996;2023-05-08T09:11:28;96934.63;;;16.10;91.00
25080;BME280;13071;48.868;9.996;2023-05-08T09:13:55;96935.66;;;16.02;91.06
25080;BME280;13071;48.868;9.996;2023-05-08T09:16:22;96942.75;;;16.06;90.89
25080;BME280;13071;48.868;9.996;2023-05-08T09:18:50;96943.63;;;16.10;92.42
25080;BME280;13071;48.868;9.996;2023-05-08T09:21:17;96942.41;;;16.08;92.04
25080;BME280;13071;48.868;9.996;2023-05-08T09:23:57;96947.44;;;16.06;91.74
25080;BME280;13071;48.868;9.996;2023-05-08T09:26:28;96949.16;;;16.14;91.97
25080;BME280;13071;48.868;9.996;2023-05-08T09:29:13;96940.84;;;16.26;90.19
25080;BME280;13071;48.868;9.996;2023-05-08T09:31:41;96952.56;;;16.26;89.64
25080;BME280;13071;48.868;9.996;2023-05-08T09:34:10;96951.84;;;16.29;91.30
25080;BME280;13071;48.868;9.996;2023-05-08T09:36:37;96949.09;;;16.29;88.97
25080;BME280;13071;48.868;9.996;2023-05-08T09:39:09;96948.13;;;16.37;88.86
25080;BME280;13071;48.868;9.996;2023-05-08T09:41:36;96955.41;;;16.33;90.61
25080;BME280;13071;48.868;9.996;2023-05-08T09:44:04;96956.22;;;16.34;91.33
25080;BME280;13071;48.868;9.996;2023-05-08T09:46:32;96958.63;;;16.01;93.97
25080;BME280;13071;48.868;9.996;2023-05-08T09:49:00;96961.09;;;16.25;90.84
25080;BME280;13071;48.868;9.996;2023-05-08T09:51:30;96960.53;;;16.35;88.63
25080;BME280;13071;48.868;9.996;2023-05-08T09:53:58;96962.06;;;16.32;89.60
25080;BME280;13071;48.868;9.996;2023-05-08T09:56:32;96962.75;;;16.29;90.77
25080;BME280;13071;48.868;9.996;2023-05-08T09:59:01;96965.72;;;16.40;89.74
25080;BME280;13071;48.868;9.996;2023-05-08T10:01:30;96971.69;;;16.46;90.88
25080;BME280;13071;48.868;9.996;2023-05-08T10:03:57;96964.63;;;16.25;93.87
25080;BME280;13071;48.868;9.996;2023-05-08T10:06:24;96969.09;;;16.53;91.55
25080;BME280;13071;48.868;9.996;2023-05-08T10:09:13;96969.03;;;16.68;87.79
25080;BME280;13071;48.868;9.996;2023-05-08T10:11:41;96971.66;;;16.61;90.23
25080;BME280;13071;48.868;9.996;2023-05-08T10:14:08;96972.16;;;16.67;89.60
25080;BME280;13071;48.868;9.996;2023-05-08T10:16:38;96971.47;;;16.73;89.53
25080;BME280;13071;48.868;9.996;2023-05-08T10:19:12;96968.59;;;16.86;86.45
25080;BME280;13071;48.868;9.996;2023-05-08T10:21:40;96976.06;;;16.89;89.81
25080;BME280;13071;48.868;9.996;2023-05-08T10:24:14;96967.56;;;16.94;88.77
25080;BME280;13071;48.868;9.996;2023-05-08T10:26:43;96970.34;;;16.97;86.65
25080;BME280;13071;48.868;9.996;2023-05-08T10:29:16;96965.09;;;17.08;85.25
25080;BME280;13071;48.868;9.996;2023-05-08T10:31:45;96971.09;;;17.17;87.37
25080;BME280;13071;48.868;9.996;2023-05-08T10:34:13;96968.22;;;17.06;90.52
25080;BME280;13071;48.868;9.996;2023-05-08T10:36:45;96965.91;;;17.31;86.72
25080;BME280;13071;48.868;9.996;2023-05-08T10:39:14;96965.59;;;17.36;88.38
25080;BME280;13071;48.868;9.996;2023-05-08T10:41:41;96960.97;;;17.40;84.67
25080;BME280;13071;48.868;9.996;2023-05-08T10:44:08;96957.84;;;17.42;84.69
25080;BME280;13071;48.868;9.996;2023-05-08T10:46:41;96960.72;;;17.49;86.31
25080;BME280;13071;48.868;9.996;2023-05-08T10:49:19;96969.38;;;17.51;87.30
25080;BME280;13071;48.868;9.996;2023-05-08T10:51:57;96968.66;;;17.57;84.78
25080;BME280;13071;48.868;9.996;2023-05-08T10:54:40;96961.88;;;17.48;83.87
25080;BME280;13071;48.868;9.996;2023-05-08T10:57:10;96956.47;;;17.51;82.12
25080;BME280;13071;48.868;9.996;2023-05-08T10:59:37;96953.13;;;17.39;85.07
25080;BME280;13071;48.868;9.996;2023-05-08T11:02:04;96956.38;;;17.02;89.18
25080;BME280;13071;48.868;9.996;2023-05-08T11:04:32;96955.31;;;17.30;84.59
25080;BME280;13071;48.868;9.996;2023-05-08T11:06:59;96956.28;;;17.18;82.64
25080;BME280;13071;48.868;9.996;2023-05-08T11:09:27;96960.31;;;17.24;83.15
25080;BME280;13071;48.868;9.996;2023-05-08T11:12:06;96959.16;;;17.25;84.48
25080;BME280;13071;48.868;9.996;2023-05-08T11:14:36;96958.97;;;17.14;85.44
25080;BME280;13071;48.868;9.996;2023-05-08T11:17:07;96957.69;;;17.08;86.93
25080;BME280;13071;48.868;9.996;2023-05-08T11:19:34;96965.38;;;17.03;85.11
25080;BME280;13071;48.868;9.996;2023-05-08T11:22:22;96957.81;;;16.35;90.75
25080;BME280;13071;48.868;9.996;2023-05-08T11:24:53;96958.59;;;16.74;88.83
25080;BME280;13071;48.868;9.996;2023-05-08T11:30:44;96960.59;;;16.58;86.47
25080;BME280;13071;48.868;9.996;2023-05-08T11:33:15;96962.34;;;16.47;91.11
25080;BME280;13071;48.868;9.996;2023-05-08T11:35:47;96960.81;;;16.49;89.04
25080;BME280;13071;48.868;9.996;2023-05-08T11:38:19;96958.53;;;16.51;89.84
25080;BME280;13071;48.868;9.996;2023-05-08T11:40:48;96965.50;;;16.49;89.13
25080;BME280;13071;48.868;9.996;2023-05-08T11:43:53;96964.00;;;16.51;86.97
25080;BME280;13071;48.868;9.996;2023-05-08T11:46:32;96961.38;;;16.39;87.71
25080;BME280;13071;48.868;9.996;2023-05-08T11:49:00;96959.31;;;16.52;88.55
25080;BME280;13071;48.868;9.996;2023-05-08T11:51:30;96957.16;;;16.41;87.14
25080;BME280;13071;48.868;9.996;2023-05-08T11:53:57;96965.59;;;16.52;87.64
25080;BME280;13071;48.868;9.996;2023-05-08T11:56:24;96960.22;;;16.02;89.99
25080;BME280;13071;48.868;9.996;2023-05-08T11:59:02;96959.66;;;16.31;89.39
25080;BME280;13071;48.868;9.996;2023-05-08T12:01:30;96966.00;;;16.35;89.23
25080;BME280;13071;48.868;9.996;2023-05-08T12:04:01;96962.22;;;16.59;85.90
25080;BME280;13071;48.868;9.996;2023-05-08T12:06:28;96955.31;;;16.65;86.09
25080;BME280;13071;48.868;9.996;2023-05-08T12:08:56;96955.47;;;16.72;86.23
25080;BME280;13071;48.868;9.996;2023-05-08T12:11:23;96959.91;;;16.61;85.86
25080;BME280;13071;48.868;9.996;2023-05-08T12:13:50;96957.25;;;16.64;84.56
25080;BME280;13071;48.868;9.996;2023-05-08T12:16:18;96958.94;;;16.34;87.90
25080;BME280;13071;48.868;9.996;2023-05-08T12:18:48;96962.97;;;16.40;89.09
25080;BME280;13071;48.868;9.996;2023-05-08T12:21:15;96953.69;;;16.25;89.14
25080;BME280;13071;48.868;9.996;2023-05-08T12:23:42;96951.47;;;16.12;92.24
25080;BME280;13071;48.868;9.996;2023-05-08T12:26:08;96953.56;;;16.37;90.19
25080;BME280;13071;48.868;9.996;2023-05-08T12:28:37;96958.59;;;16.35;89.38
25080;BME280;13071;48.868;9.996;2023-05-08T12:31:04;96965.19;;;16.34;87.29
25080;BME280;13071;48.868;9.996;2023-05-08T12:33:33;96958.53;;;16.32;87.07
25080;BME280;13071;48.868;9.996;2023-05-08T12:36:00;96959.00;;;16.18;89.30
25080;BME280;13071;48.868;9.996;2023-05-08T12:38:28;96957.28;;;16.29;88.63
25080;BME280;13071;48.868;9.996;2023-05-08T12:40:54;96961.03;;;16.21;89.32
25080;BME280;13071;48.868;9.996;2023-05-08T12:43:30;96950.97;;;16.25;89.07
25080;BME280;13071;48.868;9.996;2023-05-08T12:45:57;96960.72;;;16.07;89.45
25080;BME280;13071;48.868;9.996;2023-05-08T12:48:24;96957.00;;;16.34;87.82
25080;BME280;13071;48.868;9.996;2023-05-08T12:50:52;96957.00;;;16.15;88.87
25080;BME280;13071;48.868;9.996;2023-05-08T12:53:20;96955.88;;;16.35;87.74
25080;BME280;13071;48.868;9.996;2023-05-08T12:55:52;96955.34;;;16.11;87.92
25080;BME280;13071;48.868;9.996;2023-05-08T12:58:19;96960.03;;;16.29;88.79
25080;BME280;13071;48.868;9.996;2023-05-08T13:00:47;96961.78;;;16.37;87.73
25080;BME280;13071;48.868;9.996;2023-05-08T13:03:21;96956.66;;;16.36;88.31
25080;BME280;13071;48.868;9.996;2023-05-08T13:05:48;96953.47;;;16.34;88.46
25080;BME280;13071;48.868;9.996;2023-05-08T13:08:16;96944.94;;;16.74;86.49